This is the latest recevied weather packets stored in our database for station/object KB9PMA-1. If no packets are shown the sender has not sent any weather packets the latest 10 day(s).
| Time | Temp. | Humidity | Pressure | Rain* | Wind** | Luminosity | Snow |
|---|---|---|---|---|---|---|---|
| 1777734785 | 8.89° C | 62% | 1020.8 hPa | 0 mm | - | - | - |
| 1777734485 | 8.33° C | 59% | 1020.8 hPa | 0 mm | - | - | - |
| 1777733885 | 8.89° C | 57% | 1020.8 hPa | 0 mm | - | - | - |
| 1777733285 | 8.33° C | 61% | 1020.7 hPa | 0 mm | - | - | - |
| 1777732685 | 8.33° C | 62% | 1020.8 hPa | 0 mm | - | - | - |
| 1777732385 | 7.78° C | 59% | 1020.9 hPa | 0 mm | - | - | - |
| 1777732085 | 7.78° C | 64% | 1020.8 hPa | 0 mm | - | - | - |
| 1777731785 | 7.78° C | 61% | 1020.9 hPa | 0 mm | - | - | - |
| 1777731485 | 7.78° C | 63% | 1020.8 hPa | 0 mm | - | - | - |
| 1777731185 | 7.22° C | 61% | 1020.8 hPa | 0 mm | - | - | - |
| 1777730889 | 7.22° C | 64% | 1020.7 hPa | 0 mm | - | - | - |
| 1777730285 | 7.22° C | 65% | 1020.7 hPa | 0 mm | - | - | - |
| 1777729085 | 6.11° C | 68% | 1020.6 hPa | 0 mm | - | - | - |
| 1777728785 | 6.11° C | 68% | 1020.6 hPa | 0 mm | - | - | - |
| 1777728485 | 5.56° C | 70% | 1020.7 hPa | 0 mm | - | - | - |
| 1777728185 | 5.56° C | 71% | 1020.6 hPa | 0 mm | - | - | - |
| 1777727885 | 5° C | 73% | 1020.6 hPa | 0 mm | - | - | - |
| 1777727285 | 5° C | 75% | 1020.6 hPa | 0 mm | - | - | - |
| 1777725485 | 3.33° C | 83% | 1020.2 hPa | 0 mm | - | - | - |
| 1777725185 | 3.33° C | 83% | 1020.2 hPa | 0 mm | - | - | - |
| 1777724285 | 2.78° C | 85% | 1020.1 hPa | 0 mm | - | - | - |
| 1777723685 | 2.22° C | 86% | 1020 hPa | 0 mm | - | - | - |
| 1777723385 | 2.22° C | 86% | 1019.9 hPa | 0 mm | - | - | - |
| 1777723085 | 2.22° C | 87% | 1019.9 hPa | 0 mm | - | - | - |
| 1777722785 | 1.67° C | 87% | 1019.8 hPa | 0 mm | - | - | - |
* Rain latest hour (hover to see other rain measurements)
** Current wind speed in m/s (hover to see current wind gust speed)